Time;durP1;ratioP1;P1;durP2;ratioP2;P2;SDS_P1;SDS_P2;PMS_P1;PMS_P2;Temp;Humidity;BMP_temperature;BMP_pressure;BME280_temperature;BME280_humidity;BME280_pressure;Samples;Min_cycle;Max_cycle;Signal;HPM_P1;HPM_P2
2023/04/27 00:01:37;;;;;;;4.00;1.98;;;11.70;99.90;;;;;;7385577;19;20253;-78
2023/04/27 00:04:03;;;;;;;4.00;2.23;;;11.70;99.90;;;;;;7388510;19;20127;-79
2023/04/27 00:06:29;;;;;;;5.35;2.10;;;11.60;99.90;;;;;;7386320;19;20214;-80
2023/04/27 00:08:55;;;;;;;2.97;2.17;;;11.50;99.90;;;;;;7388461;19;20151;-79
2023/04/27 00:11:21;;;;;;;2.80;1.70;;;11.30;99.90;;;;;;7384074;19;20482;-79
2023/04/27 00:13:47;;;;;;;2.70;1.90;;;11.00;99.90;;;;;;7386930;19;20130;-79
2023/04/27 00:16:13;;;;;;;5.15;2.38;;;11.20;99.90;;;;;;7386273;19;20144;-80
2023/04/27 00:18:39;;;;;;;2.95;2.22;;;11.30;99.90;;;;;;7389829;19;20202;-79
2023/04/27 00:21:05;;;;;;;5.83;2.27;;;11.40;99.90;;;;;;7388982;19;20138;-79
2023/04/27 00:23:32;;;;;;;6.70;2.90;;;11.50;99.90;;;;;;7388897;19;20285;-79
2023/04/27 00:25:57;;;;;;;4.53;2.87;;;11.40;99.90;;;;;;7389139;19;20155;-79
2023/04/27 00:28:23;;;;;;;4.70;2.40;;;11.50;99.90;;;;;;7387656;19;20153;-79
2023/04/27 00:30:52;;;;;;;3.20;2.22;;;11.50;99.90;;;;;;7386634;19;20152;-79
2023/04/27 00:33:18;;;;;;;4.65;2.60;;;11.40;99.90;;;;;;7384677;19;20139;-78
2023/04/27 00:35:44;;;;;;;6.32;2.60;;;11.40;99.90;;;;;;7388720;19;20176;-78
2023/04/27 00:38:10;;;;;;;3.73;2.57;;;11.50;99.90;;;;;;7387049;19;20635;-78
2023/04/27 00:40:36;;;;;;;7.87;3.10;;;11.60;99.90;;;;;;7384338;19;20464;-78
2023/04/27 00:43:02;;;;;;;8.00;3.13;;;11.70;99.90;;;;;;7385226;19;20139;-79
2023/04/27 00:45:28;;;;;;;5.10;3.03;;;11.50;99.90;;;;;;7387347;19;20130;-78
2023/04/27 00:47:54;;;;;;;7.90;3.25;;;11.30;99.90;;;;;;7385457;19;20480;-78
2023/04/27 00:50:30;;;;;;;5.30;3.07;;;11.30;99.90;;;;;;7384617;19;20135;-79
2023/04/27 00:52:56;;;;;;;7.38;2.97;;;11.20;99.90;;;;;;7386328;19;20162;-80
2023/04/27 00:55:23;;;;;;;5.57;2.67;;;11.30;99.90;;;;;;7383623;19;20157;-78
2023/04/27 00:57:48;;;;;;;5.17;2.60;;;11.20;99.90;;;;;;7385972;19;20162;-80
2023/04/27 01:00:14;;;;;;;6.17;2.97;;;11.10;99.90;;;;;;7383414;19;20595;-79
2023/04/27 01:02:41;;;;;;;4.83;3.07;;;11.10;99.90;;;;;;7383487;19;20154;-78
2023/04/27 01:05:07;;;;;;;6.60;3.10;;;11.20;99.90;;;;;;7384704;19;20178;-78
2023/04/27 01:07:37;;;;;;;3.93;2.70;;;11.30;99.90;;;;;;7378465;19;20163;-80
2023/04/27 01:10:04;;;;;;;5.40;2.63;;;11.20;99.90;;;;;;7380300;19;21347;-78
2023/04/27 01:12:30;;;;;;;7.23;2.83;;;11.30;99.90;;;;;;7376994;19;20188;-79
2023/04/27 01:14:56;;;;;;;6.70;2.90;;;11.40;99.90;;;;;;7382600;19;20611;-79
2023/04/27 01:17:22;;;;;;;5.90;2.85;;;11.50;99.90;;;;;;7386047;19;20155;-79
2023/04/27 01:19:48;;;;;;;7.20;3.40;;;11.50;99.90;;;;;;7382501;19;20583;-79
2023/04/27 01:22:14;;;;;;;4.83;3.33;;;11.50;99.90;;;;;;7384630;19;20165;-79
2023/04/27 01:24:40;;;;;;;5.37;2.87;;;11.60;99.90;;;;;;7391578;19;20492;-81
2023/04/27 01:27:06;;;;;;;6.53;2.80;;;11.60;99.90;;;;;;7391118;19;20155;-80
2023/04/27 01:29:32;;;;;;;5.60;3.00;;;11.50;99.90;;;;;;7390983;19;20485;-79
2023/04/27 01:31:57;;;;;;;6.13;3.00;;;11.50;99.90;;;;;;7390678;19;20151;-79
2023/04/27 01:34:23;;;;;;;6.80;3.43;;;11.50;99.90;;;;;;7389415;19;20153;-79
2023/04/27 01:36:49;;;;;;;7.87;3.10;;;11.30;99.90;;;;;;7391575;19;20143;-79
2023/04/27 01:39:15;;;;;;;6.43;3.30;;;11.10;99.90;;;;;;7392211;19;20139;-80
2023/04/27 01:41:40;;;;;;;4.27;2.73;;;11.10;99.90;;;;;;7389807;19;20146;-80
2023/04/27 01:44:06;;;;;;;4.23;2.77;;;11.10;99.90;;;;;;7391768;19;20157;-79
2023/04/27 01:46:32;;;;;;;4.73;2.60;;;11.00;99.90;;;;;;7392109;19;20170;-78
2023/04/27 01:48:58;;;;;;;5.30;2.60;;;11.10;99.90;;;;;;7390477;19;20489;-79
2023/04/27 01:51:23;;;;;;;6.57;3.00;;;11.10;99.90;;;;;;7390008;19;20153;-79
2023/04/27 01:53:49;;;;;;;5.83;3.00;;;11.10;99.90;;;;;;7388002;19;20127;-80
2023/04/27 01:56:15;;;;;;;3.47;2.17;;;11.10;99.90;;;;;;7391039;19;20197;-79
2023/04/27 01:58:41;;;;;;;5.60;2.20;;;11.20;99.90;;;;;;7389735;19;20135;-78
2023/04/27 02:01:06;;;;;;;3.00;2.20;;;11.10;99.90;;;;;;7389074;19;20554;-79
2023/04/27 02:03:32;;;;;;;7.03;2.80;;;10.90;99.90;;;;;;7392081;19;20161;-79
2023/04/27 02:05:58;;;;;;;5.23;2.70;;;11.10;99.90;;;;;;7389988;19;20680;-79
2023/04/27 02:08:24;;;;;;;5.27;2.30;;;11.10;99.90;;;;;;7392268;19;20138;-79
2023/04/27 02:10:49;;;;;;;3.77;2.57;;;10.90;99.90;;;;;;7388953;19;20150;-79
2023/04/27 02:13:15;;;;;;;6.50;2.83;;;10.90;99.90;;;;;;7389940;19;20555;-79
2023/04/27 02:15:41;;;;;;;4.90;2.77;;;10.80;99.90;;;;;;7388901;19;20151;-79
2023/04/27 02:18:06;;;;;;;6.20;3.00;;;10.90;99.90;;;;;;7390362;19;20131;-79
2023/04/27 02:20:32;;;;;;;4.77;2.63;;;10.90;99.90;;;;;;7388906;19;20630;-79
2023/04/27 02:22:58;;;;;;;4.93;3.10;;;11.00;99.90;;;;;;7387192;19;20131;-79
2023/04/27 02:25:24;;;;;;;5.53;3.30;;;11.00;99.90;;;;;;7390591;19;20145;-79
2023/04/27 02:27:50;;;;;;;3.70;3.00;;;11.10;99.90;;;;;;7390505;19;20179;-79
2023/04/27 02:30:16;;;;;;;6.33;2.90;;;11.20;99.90;;;;;;7391178;19;20138;-79
2023/04/27 02:32:42;;;;;;;6.10;2.93;;;11.30;99.90;;;;;;7387983;19;20149;-80
2023/04/27 02:35:09;;;;;;;6.50;3.00;;;11.20;99.90;;;;;;7388670;19;20139;-79
2023/04/27 02:37:35;;;;;;;6.10;3.43;;;11.00;99.90;;;;;;7390699;19;20134;-79
2023/04/27 02:40:02;;;;;;;6.77;2.73;;;10.90;99.90;;;;;;7388914;19;20138;-78
2023/04/27 02:42:29;;;;;;;4.97;3.03;;;10.90;99.90;;;;;;7386617;19;20258;-79
2023/04/27 02:44:54;;;;;;;5.10;3.07;;;11.00;99.90;;;;;;7388881;19;20154;-79
2023/04/27 02:47:20;;;;;;;5.43;3.50;;;10.90;99.90;;;;;;7388764;19;20153;-79
2023/04/27 02:49:46;;;;;;;6.72;3.38;;;11.00;99.90;;;;;;7389786;19;20655;-79
2023/04/27 02:52:12;;;;;;;5.47;2.50;;;10.90;99.90;;;;;;7389601;19;20135;-79
2023/04/27 02:54:38;;;;;;;2.78;2.28;;;10.80;99.90;;;;;;7389889;19;20147;-78
2023/04/27 02:57:03;;;;;;;4.43;2.87;;;10.90;99.90;;;;;;7390737;19;20141;-78
2023/04/27 02:59:29;;;;;;;6.03;2.80;;;11.00;99.90;;;;;;7390890;19;20134;-79
2023/04/27 03:01:55;;;;;;;5.50;3.10;;;11.10;99.90;;;;;;7387879;19;20152;-80
2023/04/27 03:04:21;;;;;;;7.00;3.03;;;11.00;99.90;;;;;;7388651;19;20141;-79
2023/04/27 03:06:46;;;;;;;4.43;2.40;;;11.00;99.90;;;;;;7387568;19;20158;-81
2023/04/27 03:09:13;;;;;;;3.83;2.77;;;10.90;99.90;;;;;;7386151;19;20217;-78
2023/04/27 03:11:39;;;;;;;5.97;2.80;;;10.90;99.90;;;;;;7385489;19;20151;-79
2023/04/27 03:14:05;;;;;;;5.97;2.83;;;10.80;99.90;;;;;;7384132;19;20154;-78
2023/04/27 03:16:34;;;;;;;4.40;2.73;;;10.90;99.90;;;;;;7388757;19;20154;-79
2023/04/27 03:19:00;;;;;;;6.43;2.77;;;10.70;99.90;;;;;;7388876;19;20481;-80
2023/04/27 03:21:26;;;;;;;6.00;2.90;;;10.80;99.90;;;;;;7389023;19;20138;-80
2023/04/27 03:23:52;;;;;;;6.07;3.10;;;11.00;99.90;;;;;;7387541;19;20134;-80
2023/04/27 03:26:17;;;;;;;5.53;3.00;;;11.20;99.90;;;;;;7388000;19;20194;-80
2023/04/27 03:28:43;;;;;;;4.90;3.23;;;11.20;99.90;;;;;;7391422;19;20202;-79
2023/04/27 03:31:11;;;;;;;7.87;3.53;;;11.20;99.90;;;;;;7388064;19;20135;-78
2023/04/27 03:33:37;;;;;;;4.70;2.83;;;11.20;99.90;;;;;;7387456;19;20751;-79
2023/04/27 03:36:05;;;;;;;5.77;3.10;;;11.10;99.90;;;;;;7387862;19;20146;-79
2023/04/27 03:38:32;;;;;;;6.07;3.37;;;10.90;99.90;;;;;;7387963;19;20706;-79
2023/04/27 03:40:57;;;;;;;3.60;2.80;;;11.00;99.90;;;;;;7388153;19;20154;-79
2023/04/27 03:43:24;;;;;;;8.33;3.33;;;11.00;99.90;;;;;;7387794;19;20134;-79
2023/04/27 03:45:50;;;;;;;6.37;3.00;;;11.00;99.90;;;;;;7385623;19;20183;-79
2023/04/27 03:48:16;;;;;;;6.27;3.23;;;10.80;99.90;;;;;;7387205;19;20608;-79
2023/04/27 03:50:43;;;;;;;6.30;3.17;;;10.80;99.90;;;;;;7388871;19;20130;-80
2023/04/27 03:53:09;;;;;;;6.30;2.90;;;10.90;99.90;;;;;;7387183;19;20141;-79
2023/04/27 03:55:42;;;;;;;5.20;3.10;;;10.90;99.90;;;;;;7389784;19;20724;-80
2023/04/27 03:58:11;;;;;;;8.13;3.20;;;10.80;99.90;;;;;;7388577;19;20135;-80
2023/04/27 04:00:37;;;;;;;4.10;2.80;;;11.00;99.90;;;;;;7390158;19;20449;-79
2023/04/27 04:03:04;;;;;;;6.10;3.07;;;11.00;99.90;;;;;;7386981;19;20137;-79
2023/04/27 04:05:30;;;;;;;6.87;3.23;;;11.00;99.90;;;;;;7387712;19;20453;-80
2023/04/27 04:07:56;;;;;;;6.67;3.33;;;11.10;99.90;;;;;;7387030;19;20151;-79
2023/04/27 04:10:23;;;;;;;5.53;3.27;;;11.10;99.90;;;;;;7388862;19;20134;-79
2023/04/27 04:12:50;;;;;;;4.77;3.10;;;11.10;99.90;;;;;;7385904;19;20529;-80
2023/04/27 04:15:16;;;;;;;5.37;3.50;;;10.70;99.90;;;;;;7386282;19;20139;-80
2023/04/27 04:17:41;;;;;;;5.43;3.43;;;10.90;99.90;;;;;;7386334;19;20210;-79
2023/04/27 04:20:09;;;;;;;4.13;3.40;;;10.80;99.90;;;;;;7385662;19;20558;-80
2023/04/27 04:22:36;;;;;;;5.43;3.27;;;10.70;99.90;;;;;;7383147;19;20131;-79
2023/04/27 04:25:03;;;;;;;4.60;3.83;;;10.50;99.90;;;;;;7380775;19;20475;-79
2023/04/27 04:27:29;;;;;;;6.90;3.73;;;10.70;99.90;;;;;;7387711;19;20137;-82
2023/04/27 04:29:54;;;;;;;7.80;4.17;;;10.70;99.90;;;;;;7388330;19;20134;-80
2023/04/27 04:32:21;;;;;;;6.30;3.67;;;10.90;99.90;;;;;;7385392;19;20148;-80
2023/04/27 04:34:51;;;;;;;6.40;3.53;;;10.80;99.90;;;;;;7387474;19;20137;-80
2023/04/27 04:37:19;;;;;;;5.07;3.43;;;10.80;99.90;;;;;;7385057;19;20152;-80
2023/04/27 04:39:45;;;;;;;5.37;3.87;;;10.90;99.90;;;;;;7387086;19;20130;-80
2023/04/27 04:42:11;;;;;;;6.77;3.60;;;11.00;99.90;;;;;;7383889;19;20153;-80
2023/04/27 04:44:37;;;;;;;5.20;3.60;;;11.10;99.90;;;;;;7386185;19;20637;-80
2023/04/27 04:47:04;;;;;;;7.57;3.70;;;11.10;99.90;;;;;;7384559;19;20657;-80
2023/04/27 04:49:29;;;;;;;5.53;3.40;;;11.10;99.90;;;;;;7385586;19;20265;-80
2023/04/27 04:51:55;;;;;;;5.53;3.67;;;11.10;99.90;;;;;;7384774;19;20134;-73
2023/04/27 04:54:21;;;;;;;8.60;3.70;;;11.00;99.90;;;;;;7380705;19;20134;-73
2023/04/27 04:56:47;;;;;;;4.07;3.33;;;10.80;99.90;;;;;;7386236;19;20127;-73
2023/04/27 04:59:12;;;;;;;8.37;3.80;;;10.70;99.90;;;;;;7391459;19;20467;-73
2023/04/27 05:01:38;;;;;;;6.13;3.63;;;10.80;99.90;;;;;;7388362;19;20415;-72
2023/04/27 05:04:04;;;;;;;9.67;3.70;;;11.00;99.90;;;;;;7389278;19;20163;-73
2023/04/27 05:06:32;;;;;;;6.43;3.93;;;11.20;99.90;;;;;;7389977;19;20141;-72
2023/04/27 05:08:57;;;;;;;7.13;4.60;;;11.30;99.90;;;;;;7390938;19;20290;-72
2023/04/27 05:11:23;;;;;;;6.93;3.60;;;11.30;99.90;;;;;;7389885;19;20150;-72
2023/04/27 05:13:49;;;;;;;4.73;4.13;;;11.30;99.90;;;;;;7389446;19;20515;-73
2023/04/27 05:16:15;;;;;;;7.37;3.77;;;11.40;99.90;;;;;;7389049;19;20134;-73
2023/04/27 05:18:40;;;;;;;7.17;4.03;;;11.40;99.90;;;;;;7390121;19;20489;-72
2023/04/27 05:21:16;;;;;;;5.60;3.45;;;11.50;99.90;;;;;;7388409;19;20607;-72
2023/04/27 05:23:42;;;;;;;4.87;3.70;;;11.40;99.90;;;;;;7390609;19;20229;-72
2023/04/27 05:26:15;;;;;;;8.07;4.40;;;11.50;99.90;;;;;;7388978;19;20150;-73
2023/04/27 05:28:41;;;;;;;7.00;4.77;;;11.50;99.90;;;;;;7388975;19;20134;-72
2023/04/27 05:31:07;;;;;;;11.53;4.40;;;11.50;99.90;;;;;;7388949;19;20142;-73
2023/04/27 05:33:33;;;;;;;6.53;3.80;;;11.50;99.90;;;;;;7386765;19;20139;-74
2023/04/27 05:35:59;;;;;;;7.57;3.70;;;11.50;99.90;;;;;;7392119;19;20165;-72
2023/04/27 05:38:25;;;;;;;6.00;3.97;;;11.60;99.90;;;;;;7388060;19;20143;-73
2023/04/27 05:40:55;;;;;;;6.47;3.60;;;11.70;99.90;;;;;;7391285;19;20183;-73
2023/04/27 05:43:21;;;;;;;6.87;4.53;;;11.80;99.90;;;;;;7390845;19;20644;-73
2023/04/27 05:45:47;;;;;;;4.83;3.40;;;11.80;99.90;;;;;;7392207;19;20499;-74
2023/04/27 05:48:13;;;;;;;6.03;4.07;;;11.80;99.90;;;;;;7390984;19;20161;-73
2023/04/27 05:50:41;;;;;;;9.97;4.00;;;11.70;99.90;;;;;;7387888;19;20217;-73
2023/04/27 05:53:07;;;;;;;9.47;5.23;;;11.70;99.90;;;;;;7389269;19;20646;-72
2023/04/27 05:55:33;;;;;;;11.03;4.37;;;11.70;99.90;;;;;;7387244;19;20143;-73
2023/04/27 05:58:00;;;;;;;8.40;4.10;;;11.70;99.90;;;;;;7387874;19;20130;-72
2023/04/27 06:00:27;;;;;;;8.03;4.00;;;11.80;99.90;;;;;;7390412;19;20146;-73
2023/04/27 06:02:53;;;;;;;6.23;4.10;;;11.90;99.90;;;;;;7386544;19;20154;-73
2023/04/27 06:05:19;;;;;;;6.70;4.50;;;11.90;99.90;;;;;;7388609;19;20149;-73
2023/04/27 06:07:48;;;;;;;7.57;4.37;;;12.00;99.90;;;;;;7389367;19;20146;-73
2023/04/27 06:10:17;;;;;;;5.88;4.40;;;11.90;99.90;;;;;;7390451;19;20161;-73
2023/04/27 06:12:42;;;;;;;7.83;4.47;;;12.00;99.90;;;;;;7389706;19;20611;-73
2023/04/27 06:15:09;;;;;;;6.30;3.73;;;12.00;99.90;;;;;;7389789;19;20156;-71
2023/04/27 06:17:36;;;;;;;7.03;4.20;;;12.10;99.90;;;;;;7389561;19;20205;-72
2023/04/27 06:20:08;;;;;;;6.00;3.95;;;12.20;99.90;;;;;;7386096;19;20614;-74
2023/04/27 06:22:35;;;;;;;6.13;3.93;;;12.30;99.90;;;;;;7387211;19;20130;-73
2023/04/27 06:25:02;;;;;;;5.43;3.73;;;12.30;99.90;;;;;;7389775;19;20137;-73
2023/04/27 06:27:28;;;;;;;9.03;4.87;;;12.40;99.90;;;;;;7388331;19;20130;-74
2023/04/27 06:29:54;;;;;;;6.60;4.30;;;12.50;99.90;;;;;;7388856;19;20134;-73
2023/04/27 06:32:20;;;;;;;5.67;3.40;;;12.50;99.90;;;;;;7387217;19;20160;-72
2023/04/27 06:34:46;;;;;;;5.30;3.53;;;12.50;99.90;;;;;;7390497;19;20147;-72
2023/04/27 06:37:22;;;;;;;6.88;4.35;;;12.30;99.90;;;;;;7388332;19;20163;-73
2023/04/27 06:39:48;;;;;;;5.70;3.97;;;12.60;99.90;;;;;;7388423;19;20217;-72
2023/04/27 06:42:22;;;;;;;5.75;3.90;;;12.50;99.90;;;;;;7386271;19;20186;-73
2023/04/27 06:44:54;;;;;;;6.63;4.07;;;12.50;99.90;;;;;;7388877;19;20169;-73
2023/04/27 06:47:23;;;;;;;6.20;3.88;;;12.20;99.90;;;;;;7389498;19;20575;-73
2023/04/27 06:49:54;;;;;;;6.55;3.58;;;12.70;99.90;;;;;;7389955;19;20180;-71
2023/04/27 06:52:23;;;;;;;7.63;4.07;;;13.10;99.90;;;;;;7386207;19;20147;-73
2023/04/27 06:54:52;;;;;;;6.28;4.45;;;13.40;99.90;;;;;;7388633;19;20536;-74
2023/04/27 06:57:31;;;;;;;5.65;4.07;;;13.60;99.90;;;;;;7386374;19;20194;-73
2023/04/27 07:00:00;;;;;;;6.55;3.53;;;14.80;99.90;;;;;;7389222;19;20598;-74
2023/04/27 07:02:44;;;;;;;7.75;4.57;;;16.00;99.90;;;;;;7387732;19;20164;-72
2023/04/27 07:05:15;;;;;;;7.78;4.10;;;15.70;99.90;;;;;;7390565;19;20151;-72
2023/04/27 07:07:46;;;;;;;7.47;4.32;;;15.60;99.90;;;;;;7389055;19;20147;-72
2023/04/27 07:10:18;;;;;;;6.28;4.35;;;15.80;99.90;;;;;;7387669;19;20142;-74
2023/04/27 07:12:51;;;;;;;7.53;3.95;;;15.90;99.90;;;;;;7388852;19;20141;-73
2023/04/27 07:15:23;;;;;;;11.07;4.35;;;16.30;99.90;;;;;;7386826;19;20157;-72
2023/04/27 07:18:02;;;;;;;7.07;5.00;;;17.10;99.90;;;;;;7389125;19;20146;-74
2023/04/27 07:20:46;;;;;;;6.03;3.97;;;18.20;99.90;;;;;;7386091;19;20141;-75
2023/04/27 07:23:26;;;;;;;7.65;4.20;;;18.70;99.90;;;;;;7387893;19;20134;-73
2023/04/27 07:25:58;;;;;;;5.70;4.10;;;19.40;99.90;;;;;;7385332;19;20479;-73
2023/04/27 07:28:34;;;;;;;6.65;3.90;;;19.80;99.60;;;;;;7389136;19;20139;-74
2023/04/27 07:31:08;;;;;;;7.80;4.20;;;19.70;99.60;;;;;;7389117;19;20159;-74
2023/04/27 07:33:34;;;;;;;6.72;3.85;;;19.80;99.00;;;;;;7385633;19;20150;-74
2023/04/27 07:36:18;;;;;;;5.30;3.95;;;19.60;99.10;;;;;;7387550;19;20139;-74
2023/04/27 07:38:47;;;;;;;5.47;3.78;;;19.50;99.30;;;;;;7390123;19;20161;-73
2023/04/27 07:41:23;;;;;;;8.48;4.13;;;19.20;99.70;;;;;;7385060;19;20182;-74
2023/04/27 07:43:51;;;;;;;7.05;3.67;;;19.30;99.40;;;;;;7388124;19;20458;-73
2023/04/27 07:46:17;;;;;;;9.30;3.90;;;19.40;99.20;;;;;;7386837;19;20138;-76
2023/04/27 07:49:01;;;;;;;6.82;3.38;;;19.20;99.40;;;;;;7388494;19;20139;-73
2023/04/27 07:51:34;;;;;;;5.80;3.65;;;18.80;99.60;;;;;;7388020;19;20135;-74
2023/04/27 07:54:03;;;;;;;8.48;3.67;;;18.10;99.90;;;;;;7385705;19;20151;-73
2023/04/27 07:56:45;;;;;;;5.07;3.38;;;18.40;99.90;;;;;;7387608;19;20164;-72
2023/04/27 07:59:19;;;;;;;6.93;3.70;;;19.10;99.90;;;;;;7388926;19;20141;-73
2023/04/27 08:01:51;;;;;;;4.25;3.45;;;19.50;99.10;;;;;;7389881;19;20130;-74
2023/04/27 08:04:20;;;;;;;11.30;3.92;;;19.50;98.50;;;;;;7386409;19;20202;-74
2023/04/27 08:06:52;;;;;;;9.05;3.75;;;19.30;98.80;;;;;;7388349;19;20151;-73
2023/04/27 08:09:32;;;;;;;4.93;3.45;;;19.00;98.40;;;;;;7385787;19;20269;-74
2023/04/27 08:12:19;;;;;;;4.70;3.22;;;19.30;97.90;;;;;;7385035;19;20262;-74
2023/04/27 08:14:52;;;;;;;6.95;3.58;;;19.40;97.30;;;;;;7387596;19;20225;-74
2023/04/27 08:17:28;;;;;;;5.95;3.53;;;19.20;97.60;;;;;;7384435;19;20169;-75
2023/04/27 08:20:05;;;;;;;4.68;3.05;;;19.00;97.80;;;;;;7387537;19;20130;-74
2023/04/27 08:22:42;;;;;;;6.50;3.58;;;18.70;97.40;;;;;;7384178;19;20694;-73
2023/04/27 08:25:14;;;;;;;6.97;3.28;;;18.20;97.50;;;;;;7385385;19;20622;-73
2023/04/27 08:27:45;;;;;;;3.65;2.67;;;17.90;98.40;;;;;;7385615;19;20180;-73
2023/04/27 08:30:16;;;;;;;7.47;3.08;;;17.90;98.70;;;;;;7384801;19;20494;-73
2023/04/27 08:32:46;;;;;;;4.93;3.00;;;17.90;98.60;;;;;;7384070;19;20134;-74
2023/04/27 08:35:15;;;;;;;7.25;2.90;;;17.60;98.30;;;;;;7385566;19;20145;-73
2023/04/27 08:37:44;;;;;;;6.65;3.58;;;17.60;98.40;;;;;;7388906;19;20189;-73
2023/04/27 08:43:16;;;;;;;4.45;2.97;;;17.20;99.70;;;;;;7385575;19;20131;-73
2023/04/27 08:45:50;;;;;;;5.75;3.20;;;17.30;99.90;;;;;;7386114;19;20614;-74
2023/04/27 08:48:25;;;;;;;5.97;3.70;;;17.00;99.90;;;;;;7386769;19;20138;-75
2023/04/27 08:50:54;;;;;;;5.30;3.33;;;17.00;99.90;;;;;;7385846;19;20578;-73
2023/04/27 08:53:23;;;;;;;3.08;2.75;;;16.90;99.90;;;;;;7382017;19;20142;-73
2023/04/27 08:55:54;;;;;;;9.68;3.13;;;17.00;99.90;;;;;;7376935;19;20146;-74
2023/04/27 08:58:38;;;;;;;4.63;3.00;;;17.10;99.80;;;;;;7382283;19;20750;-74
2023/04/27 09:01:10;;;;;;;6.25;3.65;;;17.20;99.90;;;;;;7385242;19;20150;-74
2023/04/27 09:03:47;;;;;;;9.15;4.00;;;17.30;99.90;;;;;;7386089;19;20623;-74
2023/04/27 09:06:19;;;;;;;8.32;3.00;;;17.60;99.50;;;;;;7385820;19;20135;-73
2023/04/27 09:08:51;;;;;;;5.25;3.03;;;17.60;99.80;;;;;;7385761;19;20165;-74
2023/04/27 09:11:31;;;;;;;5.95;3.22;;;17.70;99.90;;;;;;7386799;19;20587;-74
2023/04/27 09:14:16;;;;;;;3.25;2.75;;;17.60;98.60;;;;;;7385363;19;20133;-73
2023/04/27 12:21:38;;;;;;;4.88;2.75;;;18.20;95.00;;;;;;7388839;19;20265;-74
2023/04/27 12:24:04;;;;;;;4.65;3.10;;;18.30;94.90;;;;;;7384591;19;20138;-74
2023/04/27 12:26:30;;;;;;;5.55;3.50;;;18.30;95.00;;;;;;7384969;19;20251;-74
2023/04/27 12:28:56;;;;;;;4.72;3.35;;;18.20;94.40;;;;;;7385186;19;20612;-74
2023/04/27 12:31:24;;;;;;;3.75;2.92;;;18.30;94.60;;;;;;7384871;19;20147;-74
2023/04/27 12:33:50;;;;;;;4.25;3.08;;;18.30;94.50;;;;;;7382717;19;20154;-75
2023/04/27 12:36:16;;;;;;;6.10;3.20;;;18.20;94.40;;;;;;7384913;19;20149;-73
2023/04/27 12:38:42;;;;;;;4.28;3.08;;;18.10;94.80;;;;;;7383829;19;20143;-74
2023/04/27 12:41:08;;;;;;;5.10;3.08;;;18.10;95.10;;;;;;7383112;19;20190;-76
2023/04/27 12:43:36;;;;;;;6.75;3.17;;;18.30;94.40;;;;;;7387642;19;20138;-74
2023/04/27 12:46:02;;;;;;;4.60;2.90;;;18.40;94.10;;;;;;7383697;19;20153;-74
2023/04/27 12:48:28;;;;;;;4.88;3.15;;;18.30;94.20;;;;;;7384545;19;20137;-75
2023/04/27 12:50:54;;;;;;;6.00;3.10;;;18.40;94.20;;;;;;7386829;19;20195;-74
2023/04/27 12:53:20;;;;;;;5.18;2.83;;;18.40;93.90;;;;;;7384201;19;20142;-75
2023/04/27 12:55:46;;;;;;;3.47;2.60;;;18.50;93.90;;;;;;7384244;19;20754;-74
2023/04/27 12:58:12;;;;;;;6.80;3.50;;;18.50;93.60;;;;;;7384955;19;20129;-73
2023/04/27 13:00:38;;;;;;;4.63;2.65;;;18.40;94.20;;;;;;7381969;19;20134;-73
2023/04/27 13:03:05;;;;;;;9.60;3.05;;;18.50;93.90;;;;;;7384063;19;20126;-74
2023/04/27 13:05:31;;;;;;;5.03;2.90;;;18.30;94.00;;;;;;7384301;19;20134;-73
2023/04/27 13:07:57;;;;;;;4.20;2.50;;;18.20;93.70;;;;;;7383390;19;20149;-73
2023/04/27 13:10:22;;;;;;;4.13;2.30;;;18.30;94.20;;;;;;7382420;19;20160;-73
2023/04/27 13:12:48;;;;;;;4.18;2.95;;;18.50;94.70;;;;;;7380132;19;20138;-74
2023/04/27 13:15:14;;;;;;;5.28;3.38;;;18.50;93.90;;;;;;7381950;19;20713;-73
2023/04/27 13:17:40;;;;;;;4.35;2.78;;;18.60;94.50;;;;;;7382158;19;20119;-73
2023/04/27 13:20:07;;;;;;;7.30;3.53;;;18.60;94.30;;;;;;7388428;19;20594;-73
2023/04/27 13:22:33;;;;;;;4.10;3.10;;;18.60;94.20;;;;;;7388003;19;20165;-74
2023/04/27 13:24:59;;;;;;;6.25;3.08;;;18.50;94.40;;;;;;7389619;19;20488;-74
2023/04/27 13:27:27;;;;;;;10.30;3.10;;;18.60;94.30;;;;;;7388693;19;20130;-73
2023/04/27 13:29:53;;;;;;;5.03;3.35;;;18.70;94.00;;;;;;7390611;19;20611;-74
2023/04/27 13:32:18;;;;;;;6.15;3.22;;;18.60;93.90;;;;;;7388313;19;20183;-73
2023/04/27 13:34:44;;;;;;;8.38;2.85;;;18.40;94.00;;;;;;7387946;19;20138;-74
2023/04/27 13:37:10;;;;;;;5.50;3.22;;;18.30;94.40;;;;;;7389658;19;20146;-73
2023/04/27 13:39:36;;;;;;;6.60;3.10;;;18.40;94.30;;;;;;7392298;19;20126;-74
2023/04/27 13:42:02;;;;;;;6.53;3.25;;;18.30;94.60;;;;;;7389012;19;20155;-74
2023/04/27 13:44:28;;;;;;;6.22;2.78;;;18.20;94.30;;;;;;7389572;19;20214;-74
2023/04/27 13:46:54;;;;;;;7.30;3.40;;;18.30;94.90;;;;;;7388888;19;20143;-74
2023/04/27 13:49:20;;;;;;;4.22;2.78;;;18.00;94.00;;;;;;7389578;19;20138;-73
2023/04/27 13:51:46;;;;;;;3.75;2.30;;;18.00;94.60;;;;;;7388389;19;20141;-74
2023/04/27 13:54:11;;;;;;;6.25;2.60;;;18.10;94.00;;;;;;7387544;19;20158;-74
2023/04/27 13:56:37;;;;;;;3.78;3.08;;;18.30;94.50;;;;;;7388765;19;20253;-73
2023/04/27 13:59:03;;;;;;;5.57;2.78;;;18.40;93.90;;;;;;7390629;19;20131;-74
2023/04/27 14:01:29;;;;;;;4.47;2.63;;;18.60;93.70;;;;;;7390233;19;20155;-73
2023/04/27 14:03:55;;;;;;;5.90;2.15;;;18.80;93.00;;;;;;7389449;19;20169;-74
2023/04/27 14:06:20;;;;;;;3.85;2.80;;;18.80;93.20;;;;;;7388239;19;20177;-74
2023/04/27 14:08:46;;;;;;;4.05;2.50;;;18.40;92.80;;;;;;7387855;19;20208;-73
2023/04/27 14:11:12;;;;;;;4.15;2.13;;;18.50;93.60;;;;;;7386814;19;20139;-74
2023/04/27 14:13:38;;;;;;;4.28;2.40;;;18.50;94.80;;;;;;7387851;19;20134;-74
2023/04/27 14:16:05;;;;;;;6.90;2.63;;;18.60;94.40;;;;;;7386127;19;20714;-75
2023/04/27 14:18:32;;;;;;;5.43;2.80;;;18.80;94.10;;;;;;7389314;19;20146;-73
2023/04/27 14:20:58;;;;;;;7.40;2.70;;;18.80;93.60;;;;;;7386428;19;20154;-75
2023/04/27 14:23:24;;;;;;;3.58;2.38;;;19.10;92.80;;;;;;7389663;19;20155;-74
2023/04/27 14:25:50;;;;;;;5.50;2.58;;;19.00;92.80;;;;;;7388274;19;20134;-74
2023/04/27 14:28:16;;;;;;;4.60;2.72;;;19.00;93.30;;;;;;7389445;19;20141;-74
2023/04/27 14:30:41;;;;;;;5.07;2.72;;;19.00;92.80;;;;;;7389467;19;20168;-74
2023/04/27 14:33:07;;;;;;;4.60;2.50;;;19.00;93.00;;;;;;7388451;19;20141;-76
2023/04/27 14:35:33;;;;;;;6.00;2.60;;;18.90;93.10;;;;;;7391693;19;20135;-74
2023/04/27 14:38:01;;;;;;;2.55;2.33;;;18.80;92.70;;;;;;7388966;19;20619;-73
2023/04/27 14:40:30;;;;;;;4.50;2.45;;;18.60;92.70;;;;;;7390519;19;20149;-74
2023/04/27 14:42:57;;;;;;;4.05;2.38;;;18.40;93.10;;;;;;7387539;19;20139;-73
2023/04/27 14:45:25;;;;;;;5.60;2.45;;;18.30;93.30;;;;;;7390199;19;20501;-73
2023/04/27 14:47:54;;;;;;;2.42;2.00;;;18.30;93.00;;;;;;7386579;19;20155;-72
2023/04/27 14:50:22;;;;;;;4.55;2.42;;;18.30;93.30;;;;;;7382324;19;20561;-74
2023/04/27 14:52:49;;;;;;;5.53;2.75;;;18.30;93.10;;;;;;7384616;19;20179;-74
2023/04/27 14:55:16;;;;;;;2.95;2.30;;;18.20;93.20;;;;;;7390606;19;20493;-74
2023/04/27 14:57:42;;;;;;;4.85;2.60;;;18.10;93.30;;;;;;7388686;19;20484;-73
2023/04/27 15:00:09;;;;;;;4.65;2.45;;;18.20;93.60;;;;;;7389706;19;20146;-74
2023/04/27 15:02:37;;;;;;;4.00;1.98;;;18.20;93.50;;;;;;7384242;19;20153;-74
2023/04/27 15:05:04;;;;;;;4.80;2.28;;;18.30;93.60;;;;;;7388490;19;20724;-74
2023/04/27 15:07:30;;;;;;;2.92;1.85;;;18.40;93.50;;;;;;7385902;19;20620;-75
2023/04/27 15:09:56;;;;;;;5.72;2.70;;;18.50;93.60;;;;;;7387535;19;20166;-75
2023/04/27 15:12:21;;;;;;;6.45;3.42;;;18.50;93.30;;;;;;7387973;19;20149;-74
2023/04/27 15:14:50;;;;;;;3.42;2.10;;;18.60;93.20;;;;;;7382536;19;20528;-74
2023/04/27 15:17:16;;;;;;;3.08;2.25;;;18.50;93.30;;;;;;7388036;19;20166;-75
2023/04/27 15:19:41;;;;;;;5.28;2.28;;;18.50;94.10;;;;;;7388301;19;20493;-75
2023/04/27 15:22:07;;;;;;;4.38;2.10;;;18.60;93.30;;;;;;7386184;19;20143;-75
2023/04/27 15:24:33;;;;;;;3.95;2.08;;;18.50;93.40;;;;;;7380202;19;20149;-75
2023/04/27 15:26:59;;;;;;;4.28;2.05;;;18.40;93.30;;;;;;7384808;19;20215;-74
2023/04/27 15:29:25;;;;;;;3.53;2.17;;;18.50;93.30;;;;;;7384980;19;20155;-73
2023/04/27 15:31:50;;;;;;;4.47;2.40;;;18.40;93.70;;;;;;7382837;19;20162;-74
2023/04/27 15:34:16;;;;;;;4.35;2.92;;;18.40;93.80;;;;;;7382859;19;20150;-75
2023/04/27 15:36:42;;;;;;;5.75;2.83;;;18.30;94.60;;;;;;7385306;19;20151;-73
2023/04/27 15:39:10;;;;;;;6.35;2.85;;;18.30;94.40;;;;;;7383338;19;20163;-73
2023/04/27 15:41:36;;;;;;;6.40;3.03;;;18.10;94.30;;;;;;7380850;19;20527;-74
2023/04/27 15:44:01;;;;;;;4.97;2.40;;;18.30;94.70;;;;;;7386738;19;20587;-75
2023/04/27 15:46:27;;;;;;;5.60;2.58;;;18.30;94.60;;;;;;7387716;19;20198;-74
2023/04/27 15:48:53;;;;;;;6.07;2.38;;;18.30;94.60;;;;;;7387546;19;20624;-75
2023/04/27 15:51:19;;;;;;;2.67;2.38;;;18.30;94.50;;;;;;7386011;19;20158;-73
2023/04/27 15:53:45;;;;;;;3.88;2.22;;;18.20;94.50;;;;;;7384304;19;20161;-74
2023/04/27 15:56:11;;;;;;;6.20;2.10;;;18.10;94.70;;;;;;7384302;19;20135;-73